sensor_id;sensor_type;location;lat;lon;timestamp;pressure;altitude;pressure_sealevel;temperature;humidity
72210;BME280;60113;48.762;12.302;2022-07-23T00:00:32;97242.03;;;20.08;48.46
72210;BME280;60113;48.762;12.302;2022-07-23T00:02:58;97237.72;;;20.07;48.47
72210;BME280;60113;48.762;12.302;2022-07-23T00:05:23;97240.56;;;20.05;48.95
72210;BME280;60113;48.762;12.302;2022-07-23T00:07:48;97245.03;;;20.05;48.71
72210;BME280;60113;48.762;12.302;2022-07-23T00:10:14;97246.06;;;20.04;48.87
72210;BME280;60113;48.762;12.302;2022-07-23T00:12:40;97243.56;;;20.02;48.40
72210;BME280;60113;48.762;12.302;2022-07-23T00:15:06;97237.22;;;20.03;48.43
72210;BME280;60113;48.762;12.302;2022-07-23T00:17:32;97223.88;;;20.03;48.87
72210;BME280;60113;48.762;12.302;2022-07-23T00:19:58;97207.22;;;20.01;48.60
72210;BME280;60113;48.762;12.302;2022-07-23T00:22:24;97198.75;;;19.97;48.81
72210;BME280;60113;48.762;12.302;2022-07-23T00:24:50;97197.09;;;19.96;49.16
72210;BME280;60113;48.762;12.302;2022-07-23T00:27:15;97194.78;;;19.93;48.51
72210;BME280;60113;48.762;12.302;2022-07-23T00:29:41;97183.00;;;19.88;49.32
72210;BME280;60113;48.762;12.302;2022-07-23T00:32:06;97179.84;;;19.84;49.54
72210;BME280;60113;48.762;12.302;2022-07-23T00:34:32;97172.41;;;19.79;49.77
72210;BME280;60113;48.762;12.302;2022-07-23T00:36:57;97180.91;;;19.74;49.17
72210;BME280;60113;48.762;12.302;2022-07-23T00:39:22;97179.81;;;19.69;49.67
72210;BME280;60113;48.762;12.302;2022-07-23T00:41:49;97178.03;;;19.61;50.25
72210;BME280;60113;48.762;12.302;2022-07-23T00:44:16;97176.22;;;19.53;49.66
72210;BME280;60113;48.762;12.302;2022-07-23T00:47:07;97178.22;;;19.51;59.22
72210;BME280;60113;48.762;12.302;2022-07-23T00:49:33;97180.41;;;19.47;51.29
72210;BME280;60113;48.762;12.302;2022-07-23T00:52:01;97181.44;;;19.46;50.76
72210;BME280;60113;48.762;12.302;2022-07-23T00:54:27;97169.13;;;19.45;50.10
72210;BME280;60113;48.762;12.302;2022-07-23T00:56:53;97172.13;;;19.42;50.68
72210;BME280;60113;48.762;12.302;2022-07-23T00:59:19;97161.84;;;19.39;51.37
72210;BME280;60113;48.762;12.302;2022-07-23T01:01:44;97166.03;;;19.33;51.55
72210;BME280;60113;48.762;12.302;2022-07-23T01:04:13;97168.03;;;19.31;52.20
72210;BME280;60113;48.762;12.302;2022-07-23T01:06:41;97165.72;;;19.28;51.46
72210;BME280;60113;48.762;12.302;2022-07-23T01:09:08;97176.41;;;19.20;52.11
72210;BME280;60113;48.762;12.302;2022-07-23T01:11:34;97171.78;;;19.14;51.70
72210;BME280;60113;48.762;12.302;2022-07-23T01:16:35;97169.78;;;19.16;51.68
72210;BME280;60113;48.762;12.302;2022-07-23T01:19:00;97175.78;;;19.18;51.69
72210;BME280;60113;48.762;12.302;2022-07-23T01:21:26;97167.44;;;19.21;51.81
72210;BME280;60113;48.762;12.302;2022-07-23T01:23:52;97161.25;;;19.20;51.75
72210;BME280;60113;48.762;12.302;2022-07-23T01:26:17;97166.09;;;19.17;51.96
72210;BME280;60113;48.762;12.302;2022-07-23T01:28:43;97145.31;;;19.12;51.29
72210;BME280;60113;48.762;12.302;2022-07-23T01:31:08;97145.50;;;19.10;51.83
72210;BME280;60113;48.762;12.302;2022-07-23T01:33:34;97137.00;;;19.07;51.36
72210;BME280;60113;48.762;12.302;2022-07-23T01:35:59;97131.38;;;19.02;51.91
72210;BME280;60113;48.762;12.302;2022-07-23T01:38:24;97146.84;;;18.98;52.09
72210;BME280;60113;48.762;12.302;2022-07-23T01:40:50;97157.84;;;18.95;52.12
72210;BME280;60113;48.762;12.302;2022-07-23T01:43:15;97173.81;;;18.95;52.43
72210;BME280;60113;48.762;12.302;2022-07-23T01:45:41;97167.69;;;18.94;51.54
72210;BME280;60113;48.762;12.302;2022-07-23T01:48:08;97166.66;;;18.95;52.23
72210;BME280;60113;48.762;12.302;2022-07-23T01:50:33;97172.50;;;18.99;52.11
72210;BME280;60113;48.762;12.302;2022-07-23T01:52:58;97178.28;;;19.03;52.49
72210;BME280;60113;48.762;12.302;2022-07-23T01:55:24;97193.59;;;19.09;53.15
72210;BME280;60113;48.762;12.302;2022-07-23T01:57:49;97210.91;;;19.13;52.54
72210;BME280;60113;48.762;12.302;2022-07-23T02:00:15;97220.53;;;19.14;52.49
72210;BME280;60113;48.762;12.302;2022-07-23T02:02:40;97237.72;;;19.11;52.79
72210;BME280;60113;48.762;12.302;2022-07-23T02:05:06;97240.72;;;19.08;53.16
72210;BME280;60113;48.762;12.302;2022-07-23T02:07:32;97254.16;;;19.07;52.75
72210;BME280;60113;48.762;12.302;2022-07-23T02:09:57;97278.94;;;19.24;60.66
72210;BME280;60113;48.762;12.302;2022-07-23T02:12:22;97275.88;;;19.44;54.39
72210;BME280;60113;48.762;12.302;2022-07-23T02:14:48;97282.72;;;20.02;53.64
72210;BME280;60113;48.762;12.302;2022-07-23T02:17:13;97280.38;;;20.69;55.94
72210;BME280;60113;48.762;12.302;2022-07-23T02:19:39;97285.34;;;21.10;53.17
72210;BME280;60113;48.762;12.302;2022-07-23T02:22:04;97292.06;;;21.52;54.12
72210;BME280;60113;48.762;12.302;2022-07-23T02:24:29;97285.03;;;21.81;55.13
72210;BME280;60113;48.762;12.302;2022-07-23T02:26:55;97313.22;;;21.98;54.09
72210;BME280;60113;48.762;12.302;2022-07-23T02:29:20;97305.44;;;22.04;53.38
72210;BME280;60113;48.762;12.302;2022-07-23T02:31:46;97313.84;;;22.01;53.15
72210;BME280;60113;48.762;12.302;2022-07-23T02:34:11;97317.50;;;21.78;56.88
72210;BME280;60113;48.762;12.302;2022-07-23T02:36:38;97311.16;;;21.33;59.28
72210;BME280;60113;48.762;12.302;2022-07-23T02:39:04;97313.16;;;21.01;57.08
72210;BME280;60113;48.762;12.302;2022-07-23T02:41:30;97311.63;;;20.83;56.13
72210;BME280;60113;48.762;12.302;2022-07-23T02:43:55;97325.31;;;20.65;57.19
72210;BME280;60113;48.762;12.302;2022-07-23T02:46:20;97328.44;;;20.45;59.22
72210;BME280;60113;48.762;12.302;2022-07-23T02:48:46;97321.25;;;20.31;56.50
72210;BME280;60113;48.762;12.302;2022-07-23T02:51:11;97315.81;;;20.16;58.40
72210;BME280;60113;48.762;12.302;2022-07-23T02:53:37;97319.72;;;20.05;57.09
72210;BME280;60113;48.762;12.302;2022-07-23T02:56:03;97307.41;;;20.04;58.49
72210;BME280;60113;48.762;12.302;2022-07-23T02:58:28;97301.34;;;20.10;56.78
72210;BME280;60113;48.762;12.302;2022-07-23T03:00:53;97308.66;;;20.16;54.72
72210;BME280;60113;48.762;12.302;2022-07-23T03:03:19;97311.44;;;20.23;54.74
72210;BME280;60113;48.762;12.302;2022-07-23T03:05:44;97309.41;;;20.25;53.90
72210;BME280;60113;48.762;12.302;2022-07-23T03:08:10;97310.78;;;20.21;54.74
72210;BME280;60113;48.762;12.302;2022-07-23T03:10:36;97319.38;;;20.08;54.90
72210;BME280;60113;48.762;12.302;2022-07-23T03:13:01;97324.47;;;19.86;56.48
72210;BME280;60113;48.762;12.302;2022-07-23T03:15:26;97315.94;;;19.59;55.84
72210;BME280;60113;48.762;12.302;2022-07-23T03:17:52;97317.50;;;19.36;59.06
72210;BME280;60113;48.762;12.302;2022-07-23T03:20:17;97306.78;;;19.13;58.31
72210;BME280;60113;48.762;12.302;2022-07-23T03:22:43;97302.44;;;18.95;57.56
72210;BME280;60113;48.762;12.302;2022-07-23T03:25:09;97313.44;;;18.76;58.55
72210;BME280;60113;48.762;12.302;2022-07-23T03:27:34;97297.84;;;18.56;62.99
72210;BME280;60113;48.762;12.302;2022-07-23T03:30:00;97301.66;;;18.45;64.77
72210;BME280;60113;48.762;12.302;2022-07-23T03:32:26;97302.47;;;18.29;61.47
72210;BME280;60113;48.762;12.302;2022-07-23T03:34:52;97297.78;;;18.14;59.47
72210;BME280;60113;48.762;12.302;2022-07-23T03:37:19;97286.44;;;18.04;58.82
72210;BME280;60113;48.762;12.302;2022-07-23T03:39:45;97292.75;;;17.94;60.14
72210;BME280;60113;48.762;12.302;2022-07-23T03:42:11;97284.94;;;17.84;58.67
72210;BME280;60113;48.762;12.302;2022-07-23T03:44:36;97287.06;;;17.81;58.56
72210;BME280;60113;48.762;12.302;2022-07-23T03:47:03;97279.28;;;17.79;58.24
72210;BME280;60113;48.762;12.302;2022-07-23T03:49:29;97280.44;;;17.77;60.03
72210;BME280;60113;48.762;12.302;2022-07-23T03:51:54;97285.06;;;17.74;59.78
72210;BME280;60113;48.762;12.302;2022-07-23T03:54:20;97274.59;;;17.73;58.51
72210;BME280;60113;48.762;12.302;2022-07-23T03:56:46;97264.31;;;17.70;60.08
72210;BME280;60113;48.762;12.302;2022-07-23T03:59:11;97256.31;;;17.70;60.45
72210;BME280;60113;48.762;12.302;2022-07-23T04:01:37;97256.53;;;17.77;60.87
72210;BME280;60113;48.762;12.302;2022-07-23T04:04:03;97243.88;;;17.79;59.44
72210;BME280;60113;48.762;12.302;2022-07-23T04:06:29;97246.38;;;17.80;59.62
72210;BME280;60113;48.762;12.302;2022-07-23T04:08:54;97235.91;;;17.79;59.27
72210;BME280;60113;48.762;12.302;2022-07-23T04:11:20;97230.28;;;17.73;59.79
72210;BME280;60113;48.762;12.302;2022-07-23T04:13:45;97246.69;;;17.69;61.56
72210;BME280;60113;48.762;12.302;2022-07-23T04:16:11;97246.03;;;17.67;61.22
72210;BME280;60113;48.762;12.302;2022-07-23T04:18:37;97235.88;;;17.62;61.33
72210;BME280;60113;48.762;12.302;2022-07-23T04:21:02;97237.38;;;17.56;60.64
72210;BME280;60113;48.762;12.302;2022-07-23T04:23:28;97222.25;;;17.48;60.41
72210;BME280;60113;48.762;12.302;2022-07-23T04:25:53;97205.94;;;17.43;60.87
72210;BME280;60113;48.762;12.302;2022-07-23T04:28:19;97225.03;;;17.39;64.56
72210;BME280;60113;48.762;12.302;2022-07-23T04:30:44;97238.47;;;17.37;64.69
72210;BME280;60113;48.762;12.302;2022-07-23T04:33:09;97226.03;;;17.37;61.82
72210;BME280;60113;48.762;12.302;2022-07-23T04:35:35;97220.19;;;17.34;63.76
72210;BME280;60113;48.762;12.302;2022-07-23T04:38:02;97233.78;;;17.31;63.99
72210;BME280;60113;48.762;12.302;2022-07-23T04:40:28;97259.69;;;17.29;64.75
72210;BME280;60113;48.762;12.302;2022-07-23T04:42:53;97253.53;;;17.28;62.89
72210;BME280;60113;48.762;12.302;2022-07-23T04:45:19;97233.78;;;17.31;62.71
72210;BME280;60113;48.762;12.302;2022-07-23T04:47:44;97223.84;;;17.33;64.70
72210;BME280;60113;48.762;12.302;2022-07-23T04:50:10;97239.63;;;17.34;64.12
72210;BME280;60113;48.762;12.302;2022-07-23T04:52:36;97239.94;;;17.40;70.11
72210;BME280;60113;48.762;12.302;2022-07-23T04:55:01;97239.63;;;17.43;65.83
72210;BME280;60113;48.762;12.302;2022-07-23T04:57:27;97240.84;;;17.48;67.36
72210;BME280;60113;48.762;12.302;2022-07-23T04:59:52;97234.88;;;17.55;65.41
72210;BME280;60113;48.762;12.302;2022-07-23T05:02:18;97249.00;;;17.64;65.61
72210;BME280;60113;48.762;12.302;2022-07-23T05:04:43;97255.31;;;17.71;65.36
72210;BME280;60113;48.762;12.302;2022-07-23T05:07:09;97256.34;;;17.78;63.60
72210;BME280;60113;48.762;12.302;2022-07-23T05:09:34;97269.63;;;17.86;63.88
72210;BME280;60113;48.762;12.302;2022-07-23T05:12:00;97266.16;;;17.94;64.56
72210;BME280;60113;48.762;12.302;2022-07-23T05:14:25;97266.19;;;18.03;63.89
72210;BME280;60113;48.762;12.302;2022-07-23T05:16:51;97270.56;;;18.12;63.69
72210;BME280;60113;48.762;12.302;2022-07-23T05:19:16;97272.38;;;18.20;64.13
72210;BME280;60113;48.762;12.302;2022-07-23T05:21:42;97278.53;;;18.29;63.37
72210;BME280;60113;48.762;12.302;2022-07-23T05:24:07;97274.22;;;18.36;63.28
72210;BME280;60113;48.762;12.302;2022-07-23T05:26:33;97266.41;;;18.43;62.55
72210;BME280;60113;48.762;12.302;2022-07-23T05:28:58;97260.25;;;18.51;62.45
72210;BME280;60113;48.762;12.302;2022-07-23T05:31:23;97254.59;;;18.54;62.84
72210;BME280;60113;48.762;12.302;2022-07-23T05:33:49;97262.25;;;18.57;63.17
72210;BME280;60113;48.762;12.302;2022-07-23T05:36:14;97262.41;;;18.64;62.91
72210;BME280;60113;48.762;12.302;2022-07-23T05:38:40;97270.38;;;18.72;62.37
72210;BME280;60113;48.762;12.302;2022-07-23T05:41:05;97280.16;;;18.80;63.41
72210;BME280;60113;48.762;12.302;2022-07-23T05:43:31;97281.81;;;18.89;62.83
72210;BME280;60113;48.762;12.302;2022-07-23T05:45:56;97283.13;;;19.02;62.54
72210;BME280;60113;48.762;12.302;2022-07-23T05:48:22;97277.13;;;19.16;64.01
72210;BME280;60113;48.762;12.302;2022-07-23T05:50:47;97262.28;;;19.30;65.25
72210;BME280;60113;48.762;12.302;2022-07-23T05:53:13;97262.72;;;19.42;63.52
72210;BME280;60113;48.762;12.302;2022-07-23T05:55:39;97267.94;;;19.67;64.69
72210;BME280;60113;48.762;12.302;2022-07-23T05:58:04;97270.16;;;19.87;64.18
72210;BME280;60113;48.762;12.302;2022-07-23T06:00:30;97264.41;;;19.98;64.93
72210;BME280;60113;48.762;12.302;2022-07-23T06:02:56;97275.09;;;19.98;63.76
72210;BME280;60113;48.762;12.302;2022-07-23T06:05:22;97268.25;;;19.96;64.87
72210;BME280;60113;48.762;12.302;2022-07-23T06:07:48;97270.63;;;19.91;64.35
72210;BME280;60113;48.762;12.302;2022-07-23T06:10:13;97275.47;;;19.87;64.67
72210;BME280;60113;48.762;12.302;2022-07-23T06:12:39;97281.81;;;19.86;63.56
72210;BME280;60113;48.762;12.302;2022-07-23T06:15:04;97286.63;;;19.91;63.52
72210;BME280;60113;48.762;12.302;2022-07-23T06:17:30;97285.41;;;20.02;64.87
72210;BME280;60113;48.762;12.302;2022-07-23T06:19:56;97292.47;;;20.18;64.34
72210;BME280;60113;48.762;12.302;2022-07-23T06:22:21;97304.03;;;20.33;63.07
72210;BME280;60113;48.762;12.302;2022-07-23T06:24:48;97304.63;;;20.44;63.17
72210;BME280;60113;48.762;12.302;2022-07-23T06:27:13;97313.59;;;20.51;62.80
72210;BME280;60113;48.762;12.302;2022-07-23T06:29:39;97311.53;;;20.53;63.99
72210;BME280;60113;48.762;12.302;2022-07-23T06:32:06;97305.22;;;20.54;63.17
72210;BME280;60113;48.762;12.302;2022-07-23T06:34:32;97306.03;;;20.55;62.22
72210;BME280;60113;48.762;12.302;2022-07-23T06:36:58;97310.38;;;20.56;61.94
72210;BME280;60113;48.762;12.302;2022-07-23T06:39:23;97302.09;;;20.66;61.97
72210;BME280;60113;48.762;12.302;2022-07-23T06:41:49;97303.22;;;20.71;61.50
72210;BME280;60113;48.762;12.302;2022-07-23T06:44:14;97307.09;;;20.84;61.36
72210;BME280;60113;48.762;12.302;2022-07-23T06:46:40;97306.34;;;20.98;61.02
72210;BME280;60113;48.762;12.302;2022-07-23T06:49:05;97306.16;;;21.15;61.40
72210;BME280;60113;48.762;12.302;2022-07-23T06:51:31;97307.66;;;21.33;61.59
72210;BME280;60113;48.762;12.302;2022-07-23T06:53:56;97317.59;;;21.54;60.91
72210;BME280;60113;48.762;12.302;2022-07-23T06:56:21;97308.06;;;21.67;61.09
72210;BME280;60113;48.762;12.302;2022-07-23T06:58:47;97315.28;;;21.81;61.04
72210;BME280;60113;48.762;12.302;2022-07-23T07:01:13;97322.44;;;21.96;60.96
72210;BME280;60113;48.762;12.302;2022-07-23T07:03:38;97322.75;;;22.08;60.18
72210;BME280;60113;48.762;12.302;2022-07-23T07:06:04;97320.63;;;22.18;60.10
72210;BME280;60113;48.762;12.302;2022-07-23T07:08:29;97318.06;;;22.32;59.74
72210;BME280;60113;48.762;12.302;2022-07-23T07:10:55;97313.88;;;22.44;59.88
72210;BME280;60113;48.762;12.302;2022-07-23T07:13:21;97322.41;;;22.55;59.79
72210;BME280;60113;48.762;12.302;2022-07-23T07:15:46;97329.56;;;22.69;58.99
72210;BME280;60113;48.762;12.302;2022-07-23T07:18:11;97344.47;;;22.79;58.85
72210;BME280;60113;48.762;12.302;2022-07-23T07:20:37;97344.13;;;22.89;58.56
72210;BME280;60113;48.762;12.302;2022-07-23T07:23:02;97336.22;;;23.02;58.04
72210;BME280;60113;48.762;12.302;2022-07-23T07:25:28;97339.31;;;23.06;58.04
72210;BME280;60113;48.762;12.302;2022-07-23T07:27:53;97335.06;;;23.18;57.98
72210;BME280;60113;48.762;12.302;2022-07-23T07:30:19;97345.06;;;23.31;58.03
72210;BME280;60113;48.762;12.302;2022-07-23T07:32:44;97344.13;;;23.46;58.02
72210;BME280;60113;48.762;12.302;2022-07-23T07:35:09;97336.81;;;23.68;57.98
72210;BME280;60113;48.762;12.302;2022-07-23T07:37:35;97343.28;;;23.81;58.42
72210;BME280;60113;48.762;12.302;2022-07-23T07:40:01;97343.94;;;23.96;58.54
72210;BME280;60113;48.762;12.302;2022-07-23T07:42:26;97348.28;;;23.91;58.69
72210;BME280;60113;48.762;12.302;2022-07-23T07:44:52;97360.25;;;23.95;58.28
72210;BME280;60113;48.762;12.302;2022-07-23T07:47:17;97363.38;;;24.05;58.06
72210;BME280;60113;48.762;12.302;2022-07-23T07:49:42;97373.16;;;24.20;57.84
72210;BME280;60113;48.762;12.302;2022-07-23T07:52:08;97370.06;;;24.16;57.91
72210;BME280;60113;48.762;12.302;2022-07-23T07:54:34;97380.59;;;24.18;57.81
72210;BME280;60113;48.762;12.302;2022-07-23T07:56:59;97381.63;;;24.23;57.32
72210;BME280;60113;48.762;12.302;2022-07-23T07:59:25;97380.41;;;24.26;56.84
72210;BME280;60113;48.762;12.302;2022-07-23T08:01:50;97385.34;;;24.22;56.75
72210;BME280;60113;48.762;12.302;2022-07-23T08:04:16;97394.97;;;24.10;56.62
72210;BME280;60113;48.762;12.302;2022-07-23T08:06:41;97393.16;;;24.17;56.23
72210;BME280;60113;48.762;12.302;2022-07-23T08:09:07;97398.28;;;24.12;56.11
72210;BME280;60113;48.762;12.302;2022-07-23T08:11:32;97396.88;;;24.16;55.83
72210;BME280;60113;48.762;12.302;2022-07-23T08:13:58;97399.81;;;24.21;54.98
72210;BME280;60113;48.762;12.302;2022-07-23T08:16:23;97398.81;;;24.29;55.23
72210;BME280;60113;48.762;12.302;2022-07-23T08:18:48;97397.56;;;24.32;55.23
72210;BME280;60113;48.762;12.302;2022-07-23T08:21:14;97404.63;;;24.46;55.43
72210;BME280;60113;48.762;12.302;2022-07-23T08:23:39;97403.03;;;24.72;55.22
72210;BME280;60113;48.762;12.302;2022-07-23T08:26:05;97392.31;;;24.93;55.57
72210;BME280;60113;48.762;12.302;2022-07-23T08:28:30;97399.97;;;25.16;55.61
72210;BME280;60113;48.762;12.302;2022-07-23T08:30:59;97401.81;;;25.36;54.69
72210;BME280;60113;48.762;12.302;2022-07-23T08:33:24;97397.88;;;25.45;55.11
72210;BME280;60113;48.762;12.302;2022-07-23T08:35:51;97390.19;;;25.56;54.64
72210;BME280;60113;48.762;12.302;2022-07-23T08:38:20;97388.13;;;25.58;53.93
72210;BME280;60113;48.762;12.302;2022-07-23T08:40:49;97386.28;;;25.45;53.36
72210;BME280;60113;48.762;12.302;2022-07-23T08:43:20;97391.47;;;25.33;52.22
72210;BME280;60113;48.762;12.302;2022-07-23T08:45:49;97389.38;;;25.35;53.88
72210;BME280;60113;48.762;12.302;2022-07-23T08:48:21;97390.41;;;25.47;52.26
72210;BME280;60113;48.762;12.302;2022-07-23T08:50:52;97383.78;;;25.64;52.44
72210;BME280;60113;48.762;12.302;2022-07-23T08:53:20;97402.34;;;25.79;53.71
72210;BME280;60113;48.762;12.302;2022-07-23T08:55:47;97394.69;;;25.82;53.59
72210;BME280;60113;48.762;12.302;2022-07-23T08:58:13;97393.06;;;25.81;53.22
72210;BME280;60113;48.762;12.302;2022-07-23T09:00:39;97395.34;;;25.78;53.32
72210;BME280;60113;48.762;12.302;2022-07-23T09:03:05;97399.88;;;25.77;52.88
72210;BME280;60113;48.762;12.302;2022-07-23T09:05:30;97405.09;;;25.65;52.55
72210;BME280;60113;48.762;12.302;2022-07-23T09:08:16;97405.94;;;25.45;52.79
72210;BME280;60113;48.762;12.302;2022-07-23T09:13:32;97407.19;;;25.36;53.24
72210;BME280;60113;48.762;12.302;2022-07-23T09:16:04;97413.59;;;25.35;52.86
72210;BME280;60113;48.762;12.302;2022-07-23T09:21:27;97404.94;;;25.19;54.60
72210;BME280;60113;48.762;12.302;2022-07-23T09:24:01;97414.44;;;25.08;54.83
72210;BME280;60113;48.762;12.302;2022-07-23T09:26:38;97421.88;;;25.06;54.44
72210;BME280;60113;48.762;12.302;2022-07-23T09:29:19;97412.34;;;25.10;54.99
72210;BME280;60113;48.762;12.302;2022-07-23T09:31:49;97413.59;;;25.01;54.13
72210;BME280;60113;48.762;12.302;2022-07-23T09:34:26;97412.16;;;24.92;54.75
72210;BME280;60113;48.762;12.302;2022-07-23T09:36:54;97425.13;;;24.75;54.41
72210;BME280;60113;48.762;12.302;2022-07-23T09:39:31;97428.00;;;24.59;55.76
72210;BME280;60113;48.762;12.302;2022-07-23T09:41:58;97433.56;;;24.51;54.77
72210;BME280;60113;48.762;12.302;2022-07-23T09:44:41;97426.94;;;24.54;55.57
72210;BME280;60113;48.762;12.302;2022-07-23T09:47:07;97429.00;;;24.52;54.54
72210;BME280;60113;48.762;12.302;2022-07-23T09:49:33;97424.03;;;24.48;54.55
72210;BME280;60113;48.762;12.302;2022-07-23T09:52:00;97420.47;;;24.28;55.90
72210;BME280;60113;48.762;12.302;2022-07-23T09:54:35;97422.44;;;24.12;56.04
72210;BME280;60113;48.762;12.302;2022-07-23T09:57:07;97417.28;;;24.10;55.75
72210;BME280;60113;48.762;12.302;2022-07-23T09:59:36;97420.16;;;24.09;54.26
72210;BME280;60113;48.762;12.302;2022-07-23T10:02:03;97416.00;;;24.06;53.96
72210;BME280;60113;48.762;12.302;2022-07-23T10:04:29;97421.97;;;24.02;54.14
72210;BME280;60113;48.762;12.302;2022-07-23T10:06:58;97439.31;;;23.99;54.11
72210;BME280;60113;48.762;12.302;2022-07-23T10:09:27;97430.25;;;24.00;53.95
72210;BME280;60113;48.762;12.302;2022-07-23T10:11:56;97429.72;;;24.18;53.93
72210;BME280;60113;48.762;12.302;2022-07-23T10:14:29;97421.56;;;24.47;53.53
72210;BME280;60113;48.762;12.302;2022-07-23T10:16:57;97408.16;;;24.54;53.47
72210;BME280;60113;48.762;12.302;2022-07-23T10:19:22;97411.06;;;24.72;53.71
72210;BME280;60113;48.762;12.302;2022-07-23T10:21:52;97405.31;;;25.23;53.29
72210;BME280;60113;48.762;12.302;2022-07-23T10:30:10;97411.44;;;26.76;50.07
72210;BME280;60113;48.762;12.302;2022-07-23T10:38:23;97398.16;;;27.32;49.40
72210;BME280;60113;48.762;12.302;2022-07-23T10:40:56;97404.72;;;27.62;49.96
72210;BME280;60113;48.762;12.302;2022-07-23T10:43:23;97395.19;;;28.16;49.90
72210;BME280;60113;48.762;12.302;2022-07-23T10:45:49;97384.78;;;28.38;48.71
72210;BME280;60113;48.762;12.302;2022-07-23T10:48:22;97377.44;;;28.57;48.07
72210;BME280;60113;48.762;12.302;2022-07-23T10:51:10;97375.38;;;28.83;43.35
72210;BME280;60113;48.762;12.302;2022-07-23T10:56:48;97367.66;;;29.11;43.75
72210;BME280;60113;48.762;12.302;2022-07-23T10:59:04;97368.47;;;29.00;44.35
72210;BME280;60113;48.762;12.302;2022-07-23T11:01:38;97360.50;;;29.05;41.01
72210;BME280;60113;48.762;12.302;2022-07-23T11:04:04;97358.59;;;29.29;45.66
72210;BME280;60113;48.762;12.302;2022-07-23T11:09:39;97354.34;;;29.69;39.42
72210;BME280;60113;48.762;12.302;2022-07-23T11:17:29;97335.16;;;29.71;44.43
72210;BME280;60113;48.762;12.302;2022-07-23T11:25:28;97339.13;;;29.92;38.93
72210;BME280;60113;48.762;12.302;2022-07-23T11:27:55;97326.91;;;30.07;43.75
72210;BME280;60113;48.762;12.302;2022-07-23T11:35:40;97329.91;;;30.69;40.70
72210;BME280;60113;48.762;12.302;2022-07-23T11:38:08;97320.28;;;30.61;39.47
72210;BME280;60113;48.762;12.302;2022-07-23T11:40:38;97320.66;;;30.82;42.05
72210;BME280;60113;48.762;12.302;2022-07-23T11:43:06;97311.06;;;30.91;41.57
72210;BME280;60113;48.762;12.302;2022-07-23T11:45:40;97319.09;;;31.03;34.30
72210;BME280;60113;48.762;12.302;2022-07-23T11:48:08;97309.81;;;30.99;39.01
72210;BME280;60113;48.762;12.302;2022-07-23T11:50:34;97304.78;;;31.08;39.80
72210;BME280;60113;48.762;12.302;2022-07-23T11:53:00;97311.66;;;31.16;39.33
72210;BME280;60113;48.762;12.302;2022-07-23T11:55:26;97315.84;;;31.41;37.54
72210;BME280;60113;48.762;12.302;2022-07-23T11:57:53;97308.81;;;31.45;39.58
72210;BME280;60113;48.762;12.302;2022-07-23T12:00:24;97307.44;;;31.42;34.90
72210;BME280;60113;48.762;12.302;2022-07-23T12:02:52;97298.34;;;31.54;36.27
72210;BME280;60113;48.762;12.302;2022-07-23T12:05:26;97290.69;;;31.51;36.00
72210;BME280;60113;48.762;12.302;2022-07-23T12:07:54;97289.25;;;31.43;37.81
72210;BME280;60113;48.762;12.302;2022-07-23T12:12:53;97294.97;;;31.24;33.63
72210;BME280;60113;48.762;12.302;2022-07-23T12:15:23;97288.13;;;31.39;37.35
72210;BME280;60113;48.762;12.302;2022-07-23T12:17:50;97281.00;;;31.55;36.53
72210;BME280;60113;48.762;12.302;2022-07-23T12:20:21;97270.25;;;31.65;36.30
72210;BME280;60113;48.762;12.302;2022-07-23T12:22:49;97283.25;;;31.63;37.13
72210;BME280;60113;48.762;12.302;2022-07-23T12:25:20;97273.97;;;31.59;33.68
72210;BME280;60113;48.762;12.302;2022-07-23T12:27:57;97280.44;;;31.80;39.20
72210;BME280;60113;48.762;12.302;2022-07-23T12:30:25;97274.06;;;31.92;38.22
72210;BME280;60113;48.762;12.302;2022-07-23T12:32:54;97269.97;;;31.89;37.87
72210;BME280;60113;48.762;12.302;2022-07-23T12:35:21;97265.13;;;31.69;38.20
72210;BME280;60113;48.762;12.302;2022-07-23T12:37:48;97256.69;;;31.93;38.40
72210;BME280;60113;48.762;12.302;2022-07-23T12:42:55;97269.50;;;32.25;36.35
72210;BME280;60113;48.762;12.302;2022-07-23T12:45:21;97256.63;;;32.43;36.99
72210;BME280;60113;48.762;12.302;2022-07-23T12:47:56;97259.91;;;32.45;31.70
72210;BME280;60113;48.762;12.302;2022-07-23T12:50:49;97258.50;;;32.37;31.90
72210;BME280;60113;48.762;12.302;2022-07-23T12:53:17;97248.81;;;32.19;35.01
72210;BME280;60113;48.762;12.302;2022-07-23T12:55:44;97253.44;;;32.18;36.73
72210;BME280;60113;48.762;12.302;2022-07-23T12:58:13;97256.03;;;32.36;32.77
72210;BME280;60113;48.762;12.302;2022-07-23T13:00:59;97255.50;;;32.39;31.51
72210;BME280;60113;48.762;12.302;2022-07-23T13:03:35;97269.09;;;32.72;33.43
72210;BME280;60113;48.762;12.302;2022-07-23T13:06:02;97268.66;;;32.19;35.54
72210;BME280;60113;48.762;12.302;2022-07-23T13:08:30;97275.13;;;32.13;38.83
72210;BME280;60113;48.762;12.302;2022-07-23T13:10:56;97264.00;;;31.42;36.33
72210;BME280;60113;48.762;12.302;2022-07-23T13:13:24;97276.13;;;30.14;38.23
72210;BME280;60113;48.762;12.302;2022-07-23T13:15:50;97278.81;;;30.14;40.40
72210;BME280;60113;48.762;12.302;2022-07-23T13:18:16;97272.72;;;30.19;38.89
72210;BME280;60113;48.762;12.302;2022-07-23T13:20:43;97275.63;;;30.29;40.06
72210;BME280;60113;48.762;12.302;2022-07-23T13:23:08;97271.50;;;29.98;39.82
72210;BME280;60113;48.762;12.302;2022-07-23T13:25:34;97270.78;;;29.73;39.78
72210;BME280;60113;48.762;12.302;2022-07-23T13:28:00;97273.69;;;29.18;39.90
72210;BME280;60113;48.762;12.302;2022-07-23T13:30:26;97264.53;;;29.07;40.97
72210;BME280;60113;48.762;12.302;2022-07-23T13:32:51;97271.47;;;28.67;41.18
72210;BME280;60113;48.762;12.302;2022-07-23T13:35:17;97273.25;;;28.98;40.74